EDSG weather

Grabenstetten Airport
Grabenstetten, Baden-W├╝rttemberg, Germany

Public forecast

Using degrees Celsius for public forecast. Weather courtesy of forecast.io.

METAR (pilot weather report)

Closest report is Stuttgart Airport, 12.6 nm (23.3 km) NW. Retrieved 2019/09/15 12:20 UTC (31 minutes ago):

EDDS 151220Z 33004KT 260V050 9999 FEW036 26/16 Q1024 NOSIG

TAF (pilot weather forecast)

Closest forecast is Stuttgart Airport, 12.6 nm (23.3 km) NW. Retrieved 2019/09/15 12:27 UTC (24 minutes ago):

TAF TAF EDDS 151100Z 1512/1612 VRB03KT CAVOK PROB30 TEMPO 1603/1606 3000 BCFG